Time;durP1;ratioP1;P1;durP2;ratioP2;P2;SDS_P1;SDS_P2;PMS_P1;PMS_P2;Temp;Humidity;BMP_temperature;BMP_pressure;BME280_temperature;BME280_humidity;BME280_pressure;Samples;Min_cycle;Max_cycle;Signal;HPM_P1;HPM_P2
2021/05/03 00:00:07;;;;;;;10.32;3.13;;;;;;;2.98;94.92;101749.50;4975529;28;20216;-81
2021/05/03 00:02:35;;;;;;;10.45;2.80;;;;;;;3.25;93.74;101762.88;5011033;28;20508;-80
2021/05/03 00:05:02;;;;;;;5.63;2.15;;;;;;;3.27;94.37;101757.63;4983315;28;20042;-81
2021/05/03 00:07:27;;;;;;;11.95;2.70;;;;;;;3.39;93.53;101762.22;4991398;28;20528;-79
2021/05/03 00:09:53;;;;;;;9.30;2.75;;;;;;;3.33;94.00;101759.91;4980227;28;20070;-79
2021/05/03 00:12:19;;;;;;;5.70;2.75;;;;;;;3.36;94.24;101749.38;4993754;28;20057;-80
2021/05/03 00:14:44;;;;;;;7.28;2.83;;;;;;;3.48;93.99;101761.78;4978881;28;20056;-80
2021/05/03 00:17:10;;;;;;;7.80;3.20;;;;;;;3.42;93.88;101743.88;4992961;28;20041;-81
2021/05/03 00:19:36;;;;;;;6.85;2.40;;;;;;;3.55;93.06;101761.47;5002428;28;20065;-79
2021/05/03 00:22:02;;;;;;;12.20;2.80;;;;;;;3.50;93.54;101759.06;4990402;28;20201;-79
2021/05/03 00:24:28;;;;;;;9.25;2.35;;;;;;;3.63;93.09;101751.53;4993010;28;20065;-77
2021/05/03 00:26:53;;;;;;;10.18;3.00;;;;;;;3.60;93.18;101756.84;4997259;28;20034;-81
2021/05/03 00:29:19;;;;;;;8.60;2.80;;;;;;;3.69;92.65;101759.84;4991696;28;20042;-81
2021/05/03 00:31:44;;;;;;;8.77;3.20;;;;;;;3.72;92.59;101764.03;4999659;28;20045;-78
2021/05/03 00:34:10;;;;;;;8.15;3.08;;;;;;;3.64;92.80;101759.25;4984126;28;20117;-81
2021/05/03 00:36:36;;;;;;;6.93;3.35;;;;;;;3.79;92.23;101768.00;4999056;28;20555;-81
2021/05/03 00:39:06;;;;;;;8.68;3.33;;;;;;;3.78;92.62;101757.69;4976928;28;20046;-80
2021/05/03 00:41:32;;;;;;;12.50;3.72;;;;;;;3.78;93.45;101762.91;4997084;28;20520;-78
2021/05/03 00:43:57;;;;;;;10.07;4.10;;;;;;;3.66;94.22;101760.00;4995914;28;20543;-76
2021/05/03 00:46:23;;;;;;;12.00;3.75;;;;;;;3.61;94.11;101769.75;4986452;28;20083;-78
2021/05/03 00:48:49;;;;;;;11.07;3.85;;;;;;;3.50;94.09;101765.13;4956577;28;20061;-78
2021/05/03 00:51:15;;;;;;;6.95;3.95;;;;;;;3.45;94.99;101767.09;4956195;28;20058;-80
2021/05/03 00:53:41;;;;;;;8.68;4.10;;;;;;;3.43;94.00;101762.91;5004306;28;20104;-80
2021/05/03 00:56:07;;;;;;;7.50;4.10;;;;;;;3.30;94.63;101763.50;4996842;28;20383;-78
2021/05/03 00:58:34;;;;;;;10.00;4.15;;;;;;;3.26;95.45;101768.91;4987663;28;20041;-78
2021/05/03 01:01:00;;;;;;;6.20;3.58;;;;;;;3.29;95.63;101768.75;4979134;28;20041;-80
2021/05/03 01:03:26;;;;;;;7.50;3.63;;;;;;;3.35;95.28;101759.84;4970384;28;20068;-78
2021/05/03 01:05:56;;;;;;;7.50;3.42;;;;;;;3.25;95.89;101770.66;4989638;28;20052;-79
2021/05/03 01:08:21;;;;;;;7.88;3.47;;;;;;;3.25;95.87;101762.88;4972249;28;20045;-79
2021/05/03 01:10:47;;;;;;;10.85;4.68;;;;;;;3.22;96.17;101773.41;4975521;28;20064;-78
2021/05/03 01:13:13;;;;;;;6.55;3.85;;;;;;;3.25;95.59;101764.63;5018857;28;20053;-80
2021/05/03 01:15:39;;;;;;;7.85;3.63;;;;;;;3.22;96.02;101768.22;4989220;28;20428;-80
2021/05/03 01:18:05;;;;;;;13.63;3.92;;;;;;;3.25;95.47;101772.41;4997214;28;20057;-79
2021/05/03 01:20:34;;;;;;;7.57;3.70;;;;;;;3.17;95.58;101764.16;4970153;28;20042;-81
2021/05/03 01:23:00;;;;;;;7.18;3.95;;;;;;;3.22;95.58;101772.53;4950920;28;20090;-80
2021/05/03 01:25:32;;;;;;;8.65;4.18;;;;;;;3.10;95.71;101763.59;4957678;28;20050;-79
2021/05/03 01:27:58;;;;;;;10.75;3.72;;;;;;;3.08;96.04;101768.03;4950779;28;20066;-77
2021/05/03 01:30:35;;;;;;;6.78;3.70;;;;;;;2.97;95.84;101776.31;4982614;28;20149;-79
2021/05/03 01:33:02;;;;;;;8.40;3.55;;;;;;;2.86;95.71;101771.66;4963163;28;20046;-78
2021/05/03 01:35:28;;;;;;;9.63;4.03;;;;;;;2.80;96.00;101765.91;4983897;28;20610;-79
2021/05/03 01:37:55;;;;;;;10.88;4.07;;;;;;;2.89;96.30;101768.06;4969547;28;20101;-81
2021/05/03 01:40:22;;;;;;;8.43;3.92;;;;;;;2.92;96.30;101773.13;5006183;28;20037;-78
2021/05/03 01:42:49;;;;;;;5.57;3.55;;;;;;;2.84;96.23;101773.44;4969995;28;20723;-79
2021/05/03 01:45:18;;;;;;;7.50;3.70;;;;;;;2.73;96.29;101767.91;5006515;28;20125;-81
2021/05/03 01:47:44;;;;;;;12.23;4.43;;;;;;;2.78;96.00;101772.91;4986727;28;20416;-78
2021/05/03 01:50:10;;;;;;;5.45;3.60;;;;;;;2.62;95.81;101770.16;4973570;28;20038;-79
2021/05/03 01:52:37;;;;;;;9.30;3.38;;;;;;;2.52;95.76;101775.78;4983291;28;20054;-79
2021/05/03 01:55:04;;;;;;;12.15;3.65;;;;;;;2.45;95.99;101776.97;4989450;28;20049;-78
2021/05/03 01:57:30;;;;;;;7.68;3.22;;;;;;;2.48;96.04;101775.97;4974997;28;20078;-80
2021/05/03 01:59:56;;;;;;;6.18;3.67;;;;;;;2.46;96.46;101763.09;4970106;28;20590;-79
2021/05/03 02:02:21;;;;;;;8.60;3.53;;;;;;;2.53;96.45;101771.44;4990539;28;20041;-80
2021/05/03 02:04:53;;;;;;;6.27;3.37;;;;;;;2.51;96.43;101788.78;4973089;28;20125;-79
2021/05/03 02:07:19;;;;;;;6.95;3.13;;;;;;;2.43;96.74;101783.09;5003199;28;20548;-79
2021/05/03 02:09:46;;;;;;;6.18;3.25;;;;;;;2.44;96.33;101784.78;5001714;28;20129;-79
2021/05/03 02:12:12;;;;;;;4.60;3.00;;;;;;;2.44;96.17;101788.22;4986545;28;20392;-80
2021/05/03 02:14:40;;;;;;;6.07;3.50;;;;;;;2.38;95.84;101782.47;4971541;28;20045;-80
2021/05/03 02:17:06;;;;;;;7.05;3.10;;;;;;;2.42;96.31;101792.63;4988655;28;20030;-79
2021/05/03 02:19:32;;;;;;;7.10;3.70;;;;;;;2.29;96.81;101789.72;4984544;28;20057;-79
2021/05/03 02:21:57;;;;;;;8.43;3.97;;;;;;;2.44;96.32;101795.16;4985974;28;20046;-81
2021/05/03 02:24:23;;;;;;;5.78;3.03;;;;;;;2.49;96.15;101795.78;4981022;28;20099;-80
2021/05/03 02:26:48;;;;;;;9.98;3.40;;;;;;;2.47;96.26;101801.03;4989912;28;20046;-81
2021/05/03 02:29:14;;;;;;;5.60;3.38;;;;;;;2.44;96.22;101802.91;4975630;28;20048;-80
2021/05/03 02:31:39;;;;;;;4.18;3.30;;;;;;;2.47;96.03;101798.44;5005047;28;20065;-80
2021/05/03 02:34:05;;;;;;;10.88;3.55;;;;;;;2.46;96.12;101801.09;4965877;28;20046;-78
2021/05/03 02:36:30;;;;;;;7.07;3.45;;;;;;;2.55;96.31;101800.69;4989866;28;20053;-81
2021/05/03 02:38:56;;;;;;;7.15;3.55;;;;;;;2.46;96.23;101795.91;4965237;28;20066;-79
2021/05/03 02:41:21;;;;;;;8.85;3.85;;;;;;;2.41;96.67;101792.69;4957313;28;20042;-80
2021/05/03 02:43:47;;;;;;;6.70;3.50;;;;;;;2.35;96.62;101798.97;4983539;28;20046;-81
2021/05/03 02:46:12;;;;;;;7.40;3.90;;;;;;;2.31;96.63;101798.25;4983351;28;20043;-81
2021/05/03 02:48:38;;;;;;;6.90;3.45;;;;;;;2.23;96.73;101794.34;4974909;28;20046;-78
2021/05/03 02:51:04;;;;;;;5.72;3.45;;;;;;;2.23;96.55;101800.34;4956542;28;20053;-79
2021/05/03 02:53:30;;;;;;;6.38;3.22;;;;;;;2.18;96.96;101791.94;4973877;28;20062;-81
2021/05/03 02:55:55;;;;;;;6.07;3.03;;;;;;;2.13;96.85;101792.16;4972540;28;20570;-81
2021/05/03 02:58:23;;;;;;;8.73;3.45;;;;;;;2.06;96.96;101797.66;4985870;28;20560;-79
2021/05/03 03:00:48;;;;;;;5.13;3.20;;;;;;;2.11;96.86;101785.34;4994610;28;20033;-81
2021/05/03 03:03:14;;;;;;;4.25;2.55;;;;;;;2.12;96.64;101785.28;4993816;28;20072;-79
2021/05/03 03:05:39;;;;;;;8.70;3.45;;;;;;;2.15;96.94;101789.50;4977358;28;20033;-79
2021/05/03 03:08:05;;;;;;;4.53;2.95;;;;;;;1.94;96.92;101796.41;4989993;28;20066;-79
2021/05/03 03:10:31;;;;;;;6.55;3.10;;;;;;;1.99;97.52;101796.25;4970596;28;20046;-79
2021/05/03 03:12:59;;;;;;;6.40;3.13;;;;;;;2.18;98.24;101793.69;4993653;28;20050;-80
2021/05/03 03:15:28;;;;;;;8.10;4.20;;;;;;;2.45;98.13;101797.69;4993249;28;20121;-80
2021/05/03 03:17:54;;;;;;;5.88;3.58;;;;;;;2.49;98.12;101793.22;5010044;28;20562;-80
2021/05/03 03:20:20;;;;;;;7.40;4.10;;;;;;;2.46;97.78;101804.53;5003363;28;20030;-81
2021/05/03 03:22:46;;;;;;;9.00;4.07;;;;;;;2.45;97.51;101800.25;4995880;28;20145;-80
2021/05/03 03:25:12;;;;;;;13.88;4.50;;;;;;;2.43;97.66;101804.69;5009302;28;20669;-78
2021/05/03 03:27:38;;;;;;;8.00;4.20;;;;;;;2.28;97.79;101797.56;4990861;28;20177;-81
2021/05/03 03:30:06;;;;;;;10.68;4.40;;;;;;;2.32;97.65;101804.31;5002687;28;20989;-81
2021/05/03 03:32:31;;;;;;;7.00;4.32;;;;;;;2.24;97.49;101796.00;4977975;28;20053;-80
2021/05/03 03:34:58;;;;;;;8.50;4.30;;;;;;;2.25;97.57;101814.06;4972522;28;20046;-80
2021/05/03 03:37:23;;;;;;;6.97;4.25;;;;;;;2.29;97.23;101805.25;4975011;28;20053;-79
2021/05/03 03:39:49;;;;;;;9.35;4.28;;;;;;;2.24;96.91;101809.81;4988898;28;20045;-78
2021/05/03 03:42:15;;;;;;;10.05;3.97;;;;;;;2.22;97.29;101814.19;4958175;28;20050;-77
2021/05/03 03:44:40;;;;;;;7.72;4.40;;;;;;;2.16;97.31;101811.88;4972527;28;20074;-79
2021/05/03 03:47:06;;;;;;;7.30;4.53;;;;;;;2.17;97.16;101812.72;4977058;28;20315;-80
2021/05/03 03:49:31;;;;;;;8.05;4.05;;;;;;;2.12;96.86;101818.09;4956228;28;20062;-78
2021/05/03 03:51:57;;;;;;;9.57;4.82;;;;;;;2.03;97.90;101805.56;4972944;28;20141;-77
2021/05/03 03:54:22;;;;;;;6.90;4.53;;;;;;;2.08;98.18;101814.78;4973713;28;20547;-79
2021/05/03 03:56:48;;;;;;;7.10;3.95;;;;;;;2.17;98.76;101808.41;4966413;28;20045;-79
2021/05/03 03:59:14;;;;;;;8.25;4.88;;;;;;;2.30;98.88;101816.47;4985031;28;20385;-80
2021/05/03 04:01:42;;;;;;;8.63;4.40;;;;;;;2.40;99.03;101814.31;4972854;28;20047;-79
2021/05/03 04:04:15;;;;;;;11.57;4.28;;;;;;;2.50;98.17;101818.19;4986491;28;20130;-80
2021/05/03 04:23:12;;;;;;;9.70;4.50;;;;;;;2.30;97.49;101812.13;5000046;28;20077;-79
2021/05/03 04:25:40;;;;;;;8.10;4.63;;;;;;;2.27;97.63;101821.78;4961563;28;20065;-80
2021/05/03 04:28:07;;;;;;;9.13;4.70;;;;;;;2.28;97.28;101811.38;4971718;28;20073;-79
2021/05/03 04:30:34;;;;;;;10.57;4.55;;;;;;;2.29;97.62;101827.72;4977656;28;20760;-78
2021/05/03 04:33:01;;;;;;;11.75;4.40;;;;;;;2.23;97.37;101817.66;4987704;28;20049;-79
2021/05/03 04:35:28;;;;;;;7.93;4.45;;;;;;;2.30;97.48;101832.84;4992078;28;20085;-79
2021/05/03 04:37:53;;;;;;;11.20;4.78;;;;;;;2.38;96.46;101831.69;5008776;28;20114;-81
2021/05/03 04:40:19;;;;;;;6.43;4.45;;;;;;;2.44;96.60;101834.00;4990835;28;20042;-80
2021/05/03 04:42:45;;;;;;;4.97;4.47;;;;;;;2.43;96.90;101825.41;5005154;28;20432;-78
2021/05/03 04:45:11;;;;;;;8.02;4.07;;;;;;;2.59;96.97;101827.31;4973289;28;20043;-79
2021/05/03 04:47:41;;;;;;;10.68;4.13;;;;;;;2.72;96.39;101826.66;5007600;28;20037;-80
2021/05/03 04:50:08;;;;;;;7.18;4.53;;;;;;;2.87;95.89;101837.25;4985977;28;20435;-80
2021/05/03 04:52:35;;;;;;;9.27;4.20;;;;;;;3.05;96.71;101844.19;4973563;28;20400;-80
2021/05/03 04:55:00;;;;;;;8.27;4.68;;;;;;;3.34;95.79;101844.59;4974182;28;20036;-80
2021/05/03 04:57:26;;;;;;;9.80;4.00;;;;;;;3.54;94.48;101846.22;4995203;28;20037;-78
2021/05/03 04:59:52;;;;;;;7.47;4.43;;;;;;;3.61;94.90;101851.97;4994104;28;20042;-80
2021/05/03 05:02:17;;;;;;;9.73;4.13;;;;;;;3.74;92.99;101847.00;5007518;28;20045;-80
2021/05/03 05:04:43;;;;;;;8.05;3.67;;;;;;;3.71;93.74;101855.78;4973967;28;20046;-79
2021/05/03 05:07:08;;;;;;;8.52;3.95;;;;;;;3.66;94.06;101849.97;5000601;28;20124;-79
2021/05/03 05:09:34;;;;;;;6.60;4.13;;;;;;;3.49;93.56;101848.22;4974224;28;20946;-79
2021/05/03 05:11:59;;;;;;;5.97;3.47;;;;;;;3.50;93.05;101855.06;4973420;28;20042;-77
2021/05/03 05:14:25;;;;;;;10.77;3.45;;;;;;;3.44;92.03;101852.75;4956164;28;20211;-80
2021/05/03 05:16:50;;;;;;;6.65;4.10;;;;;;;3.33;92.73;101853.25;4996609;28;20045;-79
2021/05/03 05:19:16;;;;;;;9.00;3.67;;;;;;;3.24;92.47;101851.09;4984085;28;20046;-77
2021/05/03 05:21:42;;;;;;;6.93;3.30;;;;;;;3.15;92.95;101867.94;4960287;28;20164;-80
2021/05/03 05:24:08;;;;;;;5.88;3.80;;;;;;;3.11;94.21;101856.88;4976180;28;20496;-78
2021/05/03 05:26:34;;;;;;;8.45;4.05;;;;;;;3.24;93.16;101857.16;4991699;28;20144;-79
2021/05/03 05:28:59;;;;;;;4.25;3.35;;;;;;;3.38;92.86;101858.25;4974564;28;20157;-80
2021/05/03 05:31:25;;;;;;;5.22;3.30;;;;;;;3.36;93.80;101865.25;4992234;28;20107;-80
2021/05/03 05:33:51;;;;;;;9.38;3.80;;;;;;;3.54;93.01;101863.53;5007533;28;20435;-80
2021/05/03 05:36:16;;;;;;;7.43;3.63;;;;;;;3.63;91.48;101857.91;4974900;28;20076;-80
2021/05/03 05:38:43;;;;;;;9.07;3.58;;;;;;;3.67;91.33;101860.28;4990915;28;20042;-79
2021/05/03 05:41:13;;;;;;;6.55;3.63;;;;;;;3.84;90.77;101869.84;4983803;28;20469;-79
2021/05/03 05:43:39;;;;;;;4.22;3.53;;;;;;;3.98;88.87;101873.53;4980917;28;20137;-79
2021/05/03 05:46:05;;;;;;;6.07;3.70;;;;;;;3.88;91.43;101863.59;4987243;28;20133;-80
2021/05/03 05:48:30;;;;;;;4.72;3.30;;;;;;;3.98;90.81;101863.13;4983030;28;20039;-79
2021/05/03 05:50:56;;;;;;;5.70;3.20;;;;;;;4.10;90.03;101863.34;4968096;28;20572;-79
2021/05/03 05:53:21;;;;;;;5.07;3.15;;;;;;;4.18;89.88;101869.91;4952151;28;20120;-81
2021/05/03 05:55:47;;;;;;;6.68;3.35;;;;;;;4.28;88.69;101876.34;4952478;28;20074;-79
2021/05/03 05:58:12;;;;;;;4.10;3.53;;;;;;;4.33;89.98;101871.72;4967322;28;20671;-79
2021/05/03 06:00:38;;;;;;;4.68;3.25;;;;;;;4.42;90.10;101870.44;4967749;28;20050;-78
2021/05/03 06:03:03;;;;;;;6.75;3.22;;;;;;;4.60;89.78;101879.88;4970182;28;20081;-78
2021/05/03 06:05:29;;;;;;;4.88;3.53;;;;;;;4.80;89.21;101868.44;4949091;28;20034;-77
2021/05/03 06:07:54;;;;;;;6.93;3.30;;;;;;;4.77;87.46;101873.78;4986296;28;20125;-79
2021/05/03 06:10:20;;;;;;;6.72;3.00;;;;;;;4.98;86.99;101884.81;4953214;28;20393;-79
2021/05/03 06:12:45;;;;;;;6.07;3.10;;;;;;;5.03;85.81;101877.59;5004583;28;20110;-77
2021/05/03 06:15:11;;;;;;;10.63;3.25;;;;;;;5.08;86.66;101869.53;4981755;28;20489;-77
2021/05/03 06:17:36;;;;;;;7.40;3.22;;;;;;;5.24;85.34;101879.97;4973213;28;20059;-78
2021/05/03 06:20:03;;;;;;;5.97;3.20;;;;;;;5.35;86.27;101875.00;4979891;28;20700;-77
2021/05/03 06:22:30;;;;;;;7.32;3.30;;;;;;;5.66;86.27;101884.53;4983984;28;20052;-78
2021/05/03 06:24:56;;;;;;;6.65;3.22;;;;;;;5.80;84.93;101882.91;4980251;28;20421;-77
2021/05/03 06:27:21;;;;;;;4.50;2.78;;;;;;;6.03;83.26;101882.47;4968343;28;20109;-78
2021/05/03 06:29:47;;;;;;;5.10;2.85;;;;;;;6.09;83.42;101876.06;4955893;28;20035;-79
2021/05/03 06:32:12;;;;;;;10.20;3.45;;;;;;;6.12;82.91;101875.03;5005655;28;20149;-78
2021/05/03 06:34:38;;;;;;;6.90;3.15;;;;;;;6.18;81.56;101872.91;4950599;28;20043;-78
2021/05/03 06:37:08;;;;;;;9.00;2.83;;;;;;;6.29;81.10;101876.63;4985504;28;20050;-78
2021/05/03 06:39:33;;;;;;;4.47;2.75;;;;;;;6.40;80.80;101876.84;4966061;28;20583;-79
2021/05/03 06:41:59;;;;;;;7.28;2.58;;;;;;;6.30;81.00;101876.56;4971410;28;20034;-79
2021/05/03 06:44:25;;;;;;;6.65;3.13;;;;;;;6.33;80.59;101872.91;4967474;28;20055;-78
2021/05/03 06:46:50;;;;;;;4.35;2.60;;;;;;;6.52;80.01;101876.13;4972296;28;20034;-76
2021/05/03 06:49:16;;;;;;;3.55;2.60;;;;;;;6.61;79.12;101869.50;4984381;28;20059;-77
2021/05/03 06:51:41;;;;;;;4.05;2.75;;;;;;;6.78;79.36;101871.94;4964049;28;20047;-78
2021/05/03 06:54:07;;;;;;;6.78;2.92;;;;;;;6.89;81.16;101868.66;5003217;28;20048;-78
2021/05/03 06:56:32;;;;;;;4.90;2.50;;;;;;;6.95;79.13;101870.91;4972608;28;20058;-80
2021/05/03 06:58:58;;;;;;;3.88;2.50;;;;;;;7.09;78.39;101866.59;5005534;28;20058;-78
2021/05/03 07:01:23;;;;;;;4.13;2.42;;;;;;;7.21;79.74;101874.47;4989518;28;20038;-78
2021/05/03 07:03:49;;;;;;;6.75;2.60;;;;;;;7.36;78.89;101858.75;4974432;28;20128;-79
2021/05/03 07:06:15;;;;;;;5.55;2.63;;;;;;;7.32;78.76;101852.06;4971967;28;20126;-79
2021/05/03 07:08:42;;;;;;;3.58;2.15;;;;;;;7.52;76.81;101864.69;4970639;28;20504;-80
2021/05/03 07:11:17;;;;;;;6.78;2.40;;;;;;;7.51;75.27;101864.78;4985613;28;20375;-79
2021/05/03 07:13:43;;;;;;;4.72;2.10;;;;;;;7.48;76.06;101865.81;4982139;28;20196;-78
2021/05/03 07:16:08;;;;;;;6.88;2.10;;;;;;;7.62;75.14;101872.75;5005442;28;20053;-77
2021/05/03 07:18:34;;;;;;;4.07;2.15;;;;;;;7.70;74.80;101873.09;4983732;28;20038;-79
2021/05/03 07:21:00;;;;;;;3.25;1.70;;;;;;;7.92;74.49;101876.91;4977852;28;20050;-78
2021/05/03 07:23:25;;;;;;;3.47;1.90;;;;;;;7.98;73.71;101868.66;4984710;28;20042;-80
2021/05/03 07:25:51;;;;;;;4.63;1.75;;;;;;;8.21;73.04;101868.91;5022197;28;20030;-79
2021/05/03 07:28:16;;;;;;;3.55;1.90;;;;;;;8.26;71.38;101867.66;4991234;28;20041;-78
2021/05/03 07:30:42;;;;;;;3.17;1.77;;;;;;;8.17;72.68;101874.34;4989138;28;20038;-81
2021/05/03 07:33:08;;;;;;;5.90;1.70;;;;;;;8.00;72.91;101869.41;4976709;28;20088;-79
2021/05/03 07:35:33;;;;;;;2.42;1.65;;;;;;;8.04;72.03;101876.09;4975481;28;20154;-78
2021/05/03 07:37:59;;;;;;;2.95;1.85;;;;;;;8.29;73.61;101864.84;4989845;28;20066;-77
2021/05/03 07:40:24;;;;;;;3.63;2.17;;;;;;;8.54;71.57;101874.47;4973872;28;20056;-79
2021/05/03 07:42:50;;;;;;;2.35;1.73;;;;;;;8.53;69.24;101864.13;4975948;28;20125;-79
2021/05/03 07:45:16;;;;;;;1.95;1.40;;;;;;;8.50;69.37;101870.41;4978135;28;20044;-78
2021/05/03 07:47:43;;;;;;;5.13;1.88;;;;;;;8.25;69.93;101868.59;4969877;28;20069;-76
2021/05/03 07:50:09;;;;;;;4.18;1.70;;;;;;;8.39;72.02;101863.25;4960990;28;20404;-79
2021/05/03 07:52:35;;;;;;;6.50;1.67;;;;;;;8.69;68.90;101863.91;4967773;28;20060;-80
2021/05/03 07:55:01;;;;;;;3.45;1.27;;;;;;;8.75;69.62;101859.06;4981324;28;20133;-79
2021/05/03 07:57:27;;;;;;;2.88;1.65;;;;;;;8.62;69.28;101867.88;4995988;28;20042;-78
2021/05/03 07:59:53;;;;;;;1.95;1.40;;;;;;;8.66;68.74;101867.56;4993952;28;20050;-79
2021/05/03 08:02:18;;;;;;;3.22;1.67;;;;;;;8.47;68.48;101862.75;4972856;28;20076;-77
2021/05/03 08:04:44;;;;;;;4.63;1.70;;;;;;;8.64;68.07;101864.22;4965984;28;20113;-77
2021/05/03 08:07:09;;;;;;;4.75;1.50;;;;;;;8.60;67.31;101872.38;4985313;28;20149;-78
2021/05/03 08:09:36;;;;;;;7.50;1.80;;;;;;;8.54;67.65;101881.50;4987850;28;20046;-78
2021/05/03 08:12:02;;;;;;;2.53;1.70;;;;;;;8.41;72.62;101863.16;4953287;28;20042;-80
2021/05/03 08:14:28;;;;;;;4.25;1.70;;;;;;;8.45;69.73;101867.25;4942314;28;20054;-80
2021/05/03 08:16:59;;;;;;;3.95;2.00;;;;;;;8.49;69.24;101862.66;4987043;28;20050;-78
2021/05/03 08:19:25;;;;;;;4.05;1.60;;;;;;;8.94;69.25;101873.47;4948038;28;20788;-79
2021/05/03 08:21:51;;;;;;;3.78;1.42;;;;;;;9.46;65.73;101866.31;4969861;28;20035;-79
2021/05/03 08:24:17;;;;;;;2.20;1.50;;;;;;;9.60;66.91;101870.53;4953660;28;20082;-79
2021/05/03 08:26:42;;;;;;;3.72;1.80;;;;;;;9.40;66.04;101870.22;4959877;28;20050;-80
2021/05/03 08:29:08;;;;;;;2.10;1.48;;;;;;;9.14;66.95;101869.47;4957304;28;20073;-77
2021/05/03 08:31:33;;;;;;;3.75;1.95;;;;;;;9.06;67.73;101877.00;4950223;28;20054;-79
2021/05/03 08:33:59;;;;;;;3.38;1.75;;;;;;;9.04;66.98;101871.91;4975713;28;20579;-80
2021/05/03 08:36:24;;;;;;;2.75;1.95;;;;;;;8.89;67.89;101876.44;4987230;28;21308;-79
2021/05/03 08:38:50;;;;;;;4.95;2.00;;;;;;;8.92;69.60;101878.00;4992493;28;20503;-79
2021/05/03 08:41:16;;;;;;;3.65;2.38;;;;;;;9.04;69.20;101871.91;4991073;28;20456;-80
2021/05/03 08:43:46;;;;;;;5.18;1.77;;;;;;;9.09;68.83;101876.78;4974848;28;20069;-79
2021/05/03 08:46:16;;;;;;;4.03;1.92;;;;;;;9.04;67.98;101869.28;4976671;28;20048;-80
2021/05/03 08:48:55;;;;;;;5.90;2.03;;;;;;;9.01;69.28;101869.50;4974188;28;20041;-79
2021/05/03 08:54:07;;;;;;;5.00;1.90;;;;;;;8.43;70.05;101874.38;5008519;28;20053;-78
2021/05/03 08:56:32;;;;;;;4.65;2.10;;;;;;;8.27;70.80;101866.72;5008034;28;20085;-78
2021/05/03 08:58:58;;;;;;;3.78;1.85;;;;;;;8.10;72.54;101878.31;4990638;28;20482;-78
2021/05/03 09:01:24;;;;;;;3.28;2.38;;;;;;;7.99;73.80;101876.41;5002645;28;20408;-79
2021/05/03 09:03:52;;;;;;;3.88;2.50;;;;;;;7.84;74.04;101868.75;4976945;28;20050;-78
2021/05/03 09:06:18;;;;;;;3.70;2.22;;;;;;;7.94;73.57;101880.25;4990670;28;20316;-79
2021/05/03 09:08:43;;;;;;;3.40;2.40;;;;;;;7.90;71.45;101876.19;4975695;28;20714;-80
2021/05/03 09:11:14;;;;;;;3.47;2.53;;;;;;;8.09;73.95;101875.78;4974555;28;20439;-79
2021/05/03 09:13:41;;;;;;;4.07;2.60;;;;;;;8.50;72.69;101867.78;4979951;28;20084;-78
2021/05/03 09:16:23;;;;;;;3.10;2.28;;;;;;;8.95;67.99;101877.78;4983946;28;20050;-79
2021/05/03 09:18:52;;;;;;;4.47;2.67;;;;;;;8.90;70.94;101864.19;4970522;28;20054;-79
2021/05/03 09:21:29;;;;;;;4.63;2.75;;;;;;;8.81;71.87;101870.88;4981650;28;20073;-78
2021/05/03 09:24:04;;;;;;;5.80;3.15;;;;;;;8.29;71.73;101870.06;4968024;28;20927;-79
2021/05/03 09:26:44;;;;;;;5.70;3.60;;;;;;;7.97;74.16;101873.06;4997093;28;20048;-77
2021/05/03 09:29:28;;;;;;;4.80;4.25;;;;;;;7.82;77.71;101873.22;5021927;28;20084;-76
2021/05/03 09:32:08;;;;;;;5.28;4.30;;;;;;;7.87;77.15;101881.59;4991507;28;20049;-80
2021/05/03 09:34:42;;;;;;;5.68;4.50;;;;;;;7.88;77.78;101880.66;5004067;28;20528;-80
2021/05/03 09:37:34;;;;;;;5.72;4.80;;;;;;;7.92;78.39;101875.13;5008340;28;20100;-79
2021/05/03 09:40:06;;;;;;;5.93;5.13;;;;;;;7.74;77.36;101874.59;4996409;28;20710;-80
2021/05/03 09:42:49;;;;;;;6.13;4.78;;;;;;;7.57;79.11;101870.44;4954496;28;20050;-78
2021/05/03 09:45:16;;;;;;;7.68;5.20;;;;;;;7.48;79.16;101878.00;4972292;28;20034;-80
2021/05/03 09:47:42;;;;;;;6.57;4.38;;;;;;;7.44;79.15;101876.53;4986581;28;20536;-79
2021/05/03 09:50:11;;;;;;;5.50;4.05;;;;;;;7.41;78.74;101869.75;4954602;28;20162;-75
2021/05/03 09:52:37;;;;;;;6.60;4.28;;;;;;;7.57;78.19;101864.38;4987551;28;20050;-78
2021/05/03 09:55:24;;;;;;;4.30;3.90;;;;;;;7.87;76.55;101869.34;4965976;28;20035;-77
2021/05/03 09:58:28;;;;;;;3.85;3.35;;;;;;;8.27;73.23;101871.09;4987487;28;20058;-77
2021/05/03 10:00:56;;;;;;;3.80;3.40;;;;;;;8.29;74.78;101867.44;4981999;28;20042;-79
2021/05/03 10:03:47;;;;;;;4.85;3.55;;;;;;;8.24;74.90;101872.13;4952008;28;20505;-79
2021/05/03 10:06:18;;;;;;;3.97;3.22;;;;;;;8.36;74.00;101857.41;4962149;28;20070;-81
2021/05/03 10:08:47;;;;;;;5.07;3.50;;;;;;;8.24;73.87;101864.31;4985349;28;20050;-78
2021/05/03 10:11:15;;;;;;;3.47;3.17;;;;;;;8.24;74.53;101868.69;4970276;28;20043;-79
2021/05/03 10:13:44;;;;;;;2.88;2.58;;;;;;;8.17;72.65;101863.03;4963466;28;20066;-78
2021/05/03 10:16:11;;;;;;;2.50;2.20;;;;;;;8.36;73.43;101855.63;4974788;28;20058;-78
2021/05/03 10:18:40;;;;;;;2.40;2.20;;;;;;;8.68;73.37;101851.75;4973887;28;20129;-79
2021/05/03 10:21:10;;;;;;;2.38;2.17;;;;;;;9.42;70.40;101856.97;4967595;28;20039;-81
2021/05/03 10:23:40;;;;;;;4.30;2.03;;;;;;;9.58;68.33;101857.53;4953477;28;20066;-77
2021/05/03 10:26:07;;;;;;;2.17;1.98;;;;;;;9.35;70.18;101853.97;4983522;28;20142;-77
2021/05/03 10:29:00;;;;;;;2.30;2.10;;;;;;;8.94;71.99;101849.94;4990381;28;20050;-80
2021/05/03 10:31:25;;;;;;;2.70;2.08;;;;;;;8.56;70.36;101851.66;4988839;28;20054;-80
2021/05/03 10:33:52;;;;;;;2.70;2.50;;;;;;;8.44;71.51;101854.28;4989463;28;20578;-78
2021/05/03 10:36:33;;;;;;;4.38;3.53;;;;;;;8.43;71.75;101850.84;5009226;28;20053;-77
2021/05/03 10:38:59;;;;;;;5.72;4.63;;;;;;;8.48;73.66;101856.59;5006919;28;20076;-79
2021/05/03 10:41:31;;;;;;;5.47;4.97;;;;;;;8.58;72.00;101844.56;5022477;28;20062;-80
2021/05/03 10:44:21;;;;;;;6.60;5.32;;;;;;;8.54;71.52;101840.47;4988940;28;20038;-79
2021/05/03 10:49:39;;;;;;;7.18;5.10;;;;;;;8.81;73.65;101842.09;5002291;28;20084;-77
2021/05/03 10:52:07;;;;;;;8.38;4.63;;;;;;;9.20;68.97;101826.31;5006673;28;20052;-77
2021/05/03 10:54:39;;;;;;;6.25;4.18;;;;;;;9.16;68.56;101823.06;4973632;28;20096;-79
2021/05/03 10:57:07;;;;;;;6.28;4.82;;;;;;;9.17;67.68;101822.09;4986061;28;20125;-77
2021/05/03 11:00:04;;;;;;;4.45;4.05;;;;;;;9.53;69.20;101818.59;5011703;28;20045;-78
2021/05/03 11:02:35;;;;;;;4.50;4.10;;;;;;;9.57;68.61;101816.59;5006062;28;20528;-77
2021/05/03 11:05:08;;;;;;;4.07;3.78;;;;;;;9.47;68.28;101824.28;5002571;28;20050;-77
2021/05/03 11:07:33;;;;;;;3.85;3.55;;;;;;;9.12;68.19;101816.38;4994970;28;20049;-79
2021/05/03 11:09:59;;;;;;;4.85;3.88;;;;;;;9.30;70.15;101817.66;4981503;28;20074;-79
2021/05/03 11:12:27;;;;;;;3.88;3.58;;;;;;;9.24;68.08;101807.63;5010072;28;20598;-80
2021/05/03 11:15:19;;;;;;;3.75;3.45;;;;;;;9.15;66.55;101808.28;4994349;28;20038;-77
2021/05/03 11:18:17;;;;;;;3.92;3.53;;;;;;;8.83;67.66;101803.59;4989349;28;20042;-79
2021/05/03 11:20:59;;;;;;;4.15;3.50;;;;;;;8.82;68.82;101803.72;4984259;28;20046;-79
2021/05/03 11:23:30;;;;;;;5.22;4.15;;;;;;;8.75;68.64;101805.91;4968204;28;20155;-78
2021/05/03 11:25:56;;;;;;;6.20;4.15;;;;;;;8.67;68.54;101803.03;4991433;28;20049;-77
2021/05/03 11:28:27;;;;;;;5.97;4.15;;;;;;;8.63;68.85;101793.72;4988840;28;20055;-78
2021/05/03 11:31:01;;;;;;;4.82;4.43;;;;;;;8.89;71.12;101802.31;4973089;28;20104;-78
2021/05/03 11:33:33;;;;;;;5.28;4.53;;;;;;;8.76;69.55;101797.16;4948062;28;20054;-80
2021/05/03 11:36:07;;;;;;;4.93;4.43;;;;;;;8.92;70.78;101799.50;4985739;28;20066;-78
2021/05/03 11:44:18;;;;;;;6.00;5.05;;;;;;;9.31;67.45;101800.19;4973663;28;20088;-78
2021/05/03 11:46:44;;;;;;;5.72;4.97;;;;;;;9.29;68.43;101805.53;4973168;28;20101;-77
2021/05/03 11:49:10;;;;;;;6.10;4.57;;;;;;;9.47;69.90;101808.56;4989317;28;20249;-79
2021/05/03 11:51:50;;;;;;;5.00;4.50;;;;;;;9.43;67.79;101808.91;4977654;28;20501;-76
2021/05/03 11:54:33;;;;;;;11.25;5.03;;;;;;;9.32;69.18;101807.06;4984211;28;20863;-79
2021/05/03 11:57:07;;;;;;;6.65;5.35;;;;;;;9.29;69.44;101807.31;4989099;28;20042;-78
2021/05/03 11:59:34;;;;;;;5.63;4.90;;;;;;;9.27;68.32;101806.59;4972312;28;20073;-78
2021/05/03 12:02:07;;;;;;;7.72;5.32;;;;;;;9.22;68.59;101808.69;4976413;28;20049;-79